Time;durP1;ratioP1;P1;durP2;ratioP2;P2;SDS_P1;SDS_P2;PMS_P1;PMS_P2;Temp;Humidity;BMP_temperature;BMP_pressure;BME280_temperature;BME280_humidity;BME280_pressure;Samples;Min_cycle;Max_cycle;Signal;HPM_P1;HPM_P2
2021/11/01 00:01:01;;;;;;;13.35;2.70;;;10.80;99.90;;;11.82;100.00;98917.63;4979606;28;20053;-79
2021/11/01 00:03:27;;;;;;;12.10;2.95;;;10.80;99.90;;;11.75;100.00;98924.06;4948490;28;20484;-81
2021/11/01 00:05:53;;;;;;;13.07;2.92;;;10.80;99.90;;;11.74;100.00;98922.47;4981617;28;20027;-80
2021/11/01 00:08:19;;;;;;;18.98;2.83;;;10.70;99.90;;;11.76;100.00;98920.06;4959044;29;20030;-81
2021/11/01 00:10:45;;;;;;;14.65;3.40;;;10.70;99.90;;;11.75;100.00;98910.06;4961195;28;20042;-81
2021/11/01 00:13:11;;;;;;;21.00;3.17;;;10.70;99.90;;;11.71;100.00;98914.91;4961313;28;20034;-80
2021/11/01 00:15:37;;;;;;;15.55;3.47;;;10.70;99.90;;;11.72;100.00;98918.50;4961454;29;20031;-82
2021/11/01 00:18:03;;;;;;;13.07;2.92;;;10.70;99.90;;;11.69;100.00;98920.06;4944549;29;20043;-83
2021/11/01 00:20:29;;;;;;;24.35;4.47;;;10.70;99.90;;;11.61;100.00;98918.53;4961755;28;20411;-82
2021/11/01 00:22:55;;;;;;;13.93;3.53;;;10.60;99.90;;;11.61;100.00;98919.31;4961437;29;20096;-82
2021/11/01 00:25:21;;;;;;;12.95;2.75;;;10.60;99.90;;;11.60;100.00;98917.72;4943725;29;20058;-81
2021/11/01 00:27:49;;;;;;;16.35;3.85;;;10.60;99.90;;;11.48;100.00;98912.59;4944262;29;20443;-81
2021/11/01 00:30:16;;;;;;;16.67;3.05;;;10.60;99.90;;;11.49;100.00;98905.78;4912064;29;20074;-83
2021/11/01 00:32:42;;;;;;;16.35;3.10;;;10.60;99.90;;;11.50;100.00;98903.78;4962055;28;20031;-81
2021/11/01 00:35:09;;;;;;;14.32;3.25;;;10.50;99.90;;;11.47;100.00;98899.00;4961152;29;20126;-84
2021/11/01 00:37:35;;;;;;;12.60;2.63;;;10.40;99.90;;;11.46;100.00;98900.22;4962653;29;20083;-82
2021/11/01 00:40:03;;;;;;;9.95;3.42;;;10.50;99.90;;;11.36;100.00;98903.84;4928517;29;20043;-84
2021/11/01 00:42:29;;;;;;;14.70;3.03;;;10.40;99.90;;;11.42;100.00;98905.03;4944118;29;20487;-80
2021/11/01 00:44:56;;;;;;;15.88;3.75;;;10.30;99.90;;;11.31;100.00;98896.69;4945198;29;20035;-84
2021/11/01 00:47:22;;;;;;;12.90;3.60;;;10.30;99.90;;;11.22;100.00;98904.69;4963646;29;20027;-85
2021/11/01 00:49:50;;;;;;;12.15;3.38;;;10.30;99.90;;;11.24;100.00;98910.66;4957101;29;20035;-84
2021/11/01 00:52:22;;;;;;;16.42;3.22;;;10.30;99.90;;;11.21;100.00;98919.06;4958059;29;20031;-84
2021/11/01 00:54:50;;;;;;;15.35;3.15;;;10.20;99.90;;;11.16;100.00;98925.88;4953636;29;20028;-82
2021/11/01 00:57:16;;;;;;;19.45;4.07;;;10.20;99.90;;;11.16;100.00;98919.50;4937820;29;20667;-83
2021/11/01 00:59:41;;;;;;;15.23;2.63;;;10.20;99.90;;;11.18;100.00;98922.66;4963580;29;20059;-84
2021/11/01 01:02:11;;;;;;;18.83;3.85;;;10.20;99.90;;;11.06;100.00;98907.94;4944253;29;20117;-82
2021/11/01 01:04:37;;;;;;;13.82;2.80;;;10.20;99.90;;;11.09;100.00;98906.34;4944461;29;20027;-83
2021/11/01 01:07:06;;;;;;;16.73;3.13;;;10.10;99.90;;;11.07;100.00;98905.94;4960507;29;20079;-83
2021/11/01 01:09:32;;;;;;;12.48;2.70;;;10.10;99.90;;;10.93;100.00;98900.38;4974562;28;20038;-83
2021/11/01 01:11:57;;;;;;;15.20;3.15;;;10.10;99.90;;;10.96;100.00;98900.38;4962190;28;20037;-83
2021/11/01 01:14:27;;;;;;;14.88;2.60;;;10.00;99.90;;;11.01;100.00;98902.75;4979978;28;20092;-84
2021/11/01 01:16:54;;;;;;;14.45;3.25;;;10.00;99.90;;;11.01;100.00;98902.75;4978454;28;20026;-83
2021/11/01 01:19:23;;;;;;;19.20;3.38;;;10.00;99.90;;;10.96;100.00;98911.56;4979396;28;20429;-83
2021/11/01 01:24:34;;;;;;;11.02;2.45;;;9.90;99.90;;;10.94;100.00;98916.75;4979413;28;20559;-82
2021/11/01 01:27:00;;;;;;;17.08;2.65;;;9.90;99.90;;;10.92;100.00;98919.13;4962083;28;20042;-82
2021/11/01 01:29:26;;;;;;;15.80;2.88;;;9.90;99.90;;;10.85;100.00;98913.56;4977603;28;20498;-82
2021/11/01 01:31:52;;;;;;;20.25;3.13;;;9.90;99.90;;;10.93;100.00;98900.38;4977550;28;20054;-82
2021/11/01 01:34:19;;;;;;;12.10;2.53;;;9.90;99.90;;;10.87;100.00;98902.81;4979231;28;20049;-83
2021/11/01 01:36:46;;;;;;;14.68;3.03;;;9.90;99.90;;;10.85;100.00;98896.81;4944701;28;20038;-83
2021/11/01 01:39:13;;;;;;;13.50;2.90;;;9.90;99.90;;;10.92;100.00;98887.63;4978787;28;20031;-82
2021/11/01 01:41:46;;;;;;;11.77;2.58;;;9.90;99.90;;;10.88;100.00;98890.44;4976377;28;20132;-83
2021/11/01 01:44:14;;;;;;;18.38;3.20;;;10.00;99.90;;;11.05;100.00;98889.56;4978131;28;20033;-83
2021/11/01 01:46:41;;;;;;;13.95;2.10;;;10.00;99.90;;;11.06;100.00;98891.19;4961891;28;20033;-81
2021/11/01 01:49:07;;;;;;;17.17;2.83;;;10.00;99.90;;;11.02;100.00;98884.81;4979308;28;20034;-83
2021/11/01 01:51:34;;;;;;;11.48;3.03;;;10.00;99.90;;;11.00;100.00;98870.44;4978268;28;20031;-81
2021/11/01 01:54:02;;;;;;;10.75;2.50;;;10.00;99.90;;;11.00;100.00;98873.25;4977735;28;20050;-82
2021/11/01 01:56:28;;;;;;;9.88;2.22;;;10.00;99.90;;;10.99;100.00;98880.03;4977357;28;20027;-84
2021/11/01 01:58:58;;;;;;;16.13;3.17;;;10.00;99.90;;;10.96;100.00;98866.06;4944293;28;20323;-83
2021/11/01 02:01:25;;;;;;;8.50;1.98;;;10.00;99.90;;;11.02;100.00;98873.63;4975784;28;20442;-83
2021/11/01 02:03:53;;;;;;;13.07;2.53;;;10.00;99.90;;;11.01;100.00;98879.63;4977169;28;20035;-83
2021/11/01 02:06:45;;;;;;;11.15;2.13;;;10.10;99.90;;;11.07;100.00;98878.81;4943200;28;20113;-83
2021/11/01 02:09:21;;;;;;;8.30;2.35;;;10.10;99.90;;;11.04;100.00;98879.59;4963967;28;20027;-84
2021/11/01 02:12:05;;;;;;;10.95;2.50;;;10.10;99.90;;;10.97;100.00;98885.22;4940174;29;20051;-83
2021/11/01 02:15:07;;;;;;;15.43;3.55;;;10.10;99.90;;;10.99;100.00;98880.03;4924208;29;20035;-85
2021/11/01 02:17:35;;;;;;;13.82;2.28;;;10.10;99.90;;;10.97;100.00;98876.84;4925465;29;20042;-81
2021/11/01 02:20:41;;;;;;;11.82;2.17;;;10.10;99.90;;;10.93;100.00;98880.84;4939991;29;20098;-82
2021/11/01 02:23:27;;;;;;;12.52;2.30;;;10.00;99.90;;;10.89;100.00;98878.06;4942418;29;20023;-84
2021/11/01 02:26:03;;;;;;;10.02;2.10;;;10.00;99.90;;;10.93;100.00;98876.06;4940896;29;20053;-82
2021/11/01 02:28:37;;;;;;;14.68;2.50;;;10.00;99.90;;;10.94;100.00;98874.88;4958560;29;20027;-79
2021/11/01 02:31:19;;;;;;;11.52;1.65;;;10.00;99.90;;;10.92;100.00;98868.88;4925618;29;20043;-82
2021/11/01 02:33:49;;;;;;;15.93;2.50;;;10.00;99.90;;;10.96;100.00;98866.88;4958365;28;20031;-84
2021/11/01 02:36:17;;;;;;;14.85;2.83;;;10.00;99.90;;;10.82;100.00;98871.72;4924335;29;20107;-83
2021/11/01 02:38:49;;;;;;;11.15;2.22;;;10.00;99.90;;;10.98;100.00;98867.25;4940751;29;20031;-84
2021/11/01 02:41:41;;;;;;;15.05;2.20;;;10.10;99.90;;;10.98;100.00;98864.44;4958312;29;20126;-84
2021/11/01 02:44:10;;;;;;;10.75;2.65;;;10.10;99.90;;;11.02;100.00;98862.44;4941499;29;20491;-82
2021/11/01 02:46:39;;;;;;;12.15;2.20;;;10.10;99.90;;;11.04;100.00;98848.88;4924860;29;20031;-81
2021/11/01 02:49:06;;;;;;;11.45;1.70;;;10.10;99.90;;;11.03;100.00;98852.88;4941074;29;20111;-84
2021/11/01 02:51:33;;;;;;;9.30;2.50;;;10.10;99.90;;;11.02;100.00;98840.09;4957553;28;20054;-83
2021/11/01 02:54:03;;;;;;;18.13;1.90;;;10.10;99.90;;;10.99;100.00;98848.50;4943785;29;20032;-83
2021/11/01 02:56:29;;;;;;;7.82;1.50;;;10.10;99.90;;;10.91;100.00;98844.94;4943730;29;20039;-84
2021/11/01 02:58:56;;;;;;;11.70;1.52;;;10.00;99.90;;;10.97;100.00;98860.09;4960470;29;20034;-83
2021/11/01 03:01:24;;;;;;;12.73;2.70;;;10.00;99.90;;;10.91;100.00;98853.31;4927374;29;20498;-84
2021/11/01 03:03:50;;;;;;;8.27;2.03;;;10.00;99.90;;;10.90;100.00;98848.94;4960351;28;20039;-84
2021/11/01 03:06:38;;;;;;;9.02;2.25;;;10.00;99.90;;;10.92;100.00;98848.50;4943511;29;20058;-84
2021/11/01 03:09:04;;;;;;;11.77;1.70;;;10.00;99.90;;;10.85;100.00;98838.16;4922500;28;20034;-84
2021/11/01 03:11:31;;;;;;;7.45;1.48;;;9.90;99.90;;;10.79;100.00;98842.56;4980117;28;20058;-84
2021/11/01 03:13:59;;;;;;;13.15;2.22;;;9.90;99.90;;;10.71;100.00;98845.78;4979054;28;20031;-84
2021/11/01 03:16:27;;;;;;;11.38;2.55;;;9.90;99.90;;;10.70;100.00;98835.81;4962541;28;20034;-82
2021/11/01 03:19:18;;;;;;;10.95;1.83;;;9.90;99.90;;;10.68;100.00;98835.44;4980069;28;20050;-84
2021/11/01 03:21:50;;;;;;;13.23;2.50;;;9.80;99.90;;;10.78;100.00;98840.19;4965692;28;20046;-84
2021/11/01 03:24:17;;;;;;;7.63;1.75;;;9.80;99.90;;;10.71;100.00;98840.22;4947252;28;20558;-82
2021/11/01 03:26:47;;;;;;;10.55;1.85;;;9.80;99.90;;;10.71;100.00;98838.22;4980671;28;20027;-83
2021/11/01 03:29:18;;;;;;;8.45;1.73;;;9.80;99.90;;;10.65;100.00;98845.41;4962546;28;20039;-82
2021/11/01 03:31:46;;;;;;;6.13;1.40;;;9.80;99.90;;;10.67;100.00;98845.78;4962856;28;20054;-83
2021/11/01 03:34:13;;;;;;;12.85;1.75;;;9.80;99.90;;;10.68;100.00;98844.59;4946386;28;20031;-81
2021/11/01 03:36:40;;;;;;;7.43;1.92;;;9.70;99.90;;;10.60;100.00;98843.00;4980479;28;20034;-84
2021/11/01 03:39:11;;;;;;;9.02;1.83;;;9.70;99.90;;;10.66;100.00;98851.78;4978626;28;20023;-85
2021/11/01 03:41:39;;;;;;;11.88;1.88;;;9.70;99.90;;;10.67;100.00;98840.22;4979904;28;20394;-83
2021/11/01 03:44:09;;;;;;;14.15;2.05;;;9.70;99.90;;;10.67;100.00;98851.38;4962486;28;20035;-83
2021/11/01 03:47:12;;;;;;;9.18;2.30;;;9.70;99.90;;;10.63;100.00;98852.59;4962705;28;20023;-82
2021/11/01 03:49:35;;;;;;;16.52;2.35;;;9.70;99.90;;;10.61;100.00;98855.78;4962933;28;20096;-80
2021/11/01 03:52:10;;;;;;;11.77;2.05;;;9.70;99.90;;;10.55;100.00;98857.38;4964190;28;20030;-83
2021/11/01 03:54:39;;;;;;;9.23;1.52;;;9.70;99.90;;;10.53;100.00;98851.41;4980621;28;20035;-81
2021/11/01 03:57:10;;;;;;;9.00;2.10;;;9.70;99.90;;;10.53;100.00;98852.19;4981183;28;20034;-83
2021/11/01 03:59:40;;;;;;;5.57;1.85;;;9.70;99.90;;;10.51;100.00;98854.59;4981176;28;20027;-83
2021/11/01 04:02:14;;;;;;;10.00;2.13;;;9.70;99.90;;;10.48;100.00;98868.56;4982023;28;20026;-81
2021/11/01 04:04:51;;;;;;;11.45;1.80;;;9.70;99.90;;;10.56;100.00;98861.78;4963920;28;20065;-83
2021/11/01 04:07:19;;;;;;;9.27;2.05;;;9.70;99.90;;;10.56;100.00;98859.75;4950375;28;20051;-82
2021/11/01 04:09:46;;;;;;;8.48;1.77;;;9.70;99.90;;;10.62;100.00;98862.16;4966402;28;20093;-82
2021/11/01 04:12:14;;;;;;;7.40;2.08;;;9.70;99.90;;;10.51;100.00;98860.19;4946271;29;20039;-84
2021/11/01 04:14:46;;;;;;;9.23;1.63;;;9.70;99.90;;;10.49;100.00;98859.78;4963576;28;20030;-85
2021/11/01 04:17:22;;;;;;;7.63;2.13;;;9.60;99.90;;;10.53;100.00;98866.16;4963548;28;20031;-84
2021/11/01 04:22:37;;;;;;;9.20;1.77;;;9.60;99.90;;;10.48;100.00;98865.75;4937280;29;20035;-82
2021/11/01 04:25:05;;;;;;;8.68;1.73;;;9.60;99.90;;;10.49;100.00;98862.59;4942561;29;20027;-83
2021/11/01 04:27:33;;;;;;;11.18;1.77;;;9.60;99.90;;;10.50;100.00;98872.53;4959933;29;20501;-83
2021/11/01 04:30:00;;;;;;;10.52;2.58;;;9.60;99.90;;;10.52;100.00;98880.53;4926314;29;20036;-84
2021/11/01 04:32:34;;;;;;;10.00;2.35;;;9.60;99.90;;;10.50;100.00;98871.72;4961517;29;20027;-81
2021/11/01 04:35:08;;;;;;;9.90;1.77;;;9.60;99.90;;;10.48;100.00;98866.56;4943523;29;20141;-82
2021/11/01 04:37:36;;;;;;;6.25;1.27;;;9.60;99.90;;;10.41;100.00;98869.34;4960901;29;20035;-84
2021/11/01 04:40:24;;;;;;;12.07;2.13;;;9.50;99.90;;;10.39;100.00;98871.75;4943780;29;20050;-82
2021/11/01 04:53:36;;;;;;;9.88;2.17;;;9.40;99.90;;;10.31;100.00;98853.41;4959730;29;20038;-83
2021/11/01 04:56:02;;;;;;;9.50;1.88;;;9.40;99.90;;;10.31;100.00;98849.81;4942710;29;20035;-84
2021/11/01 04:58:28;;;;;;;7.35;1.50;;;9.40;99.90;;;10.32;100.00;98857.00;4959527;29;20046;-84
2021/11/01 05:00:54;;;;;;;6.88;1.90;;;9.30;99.90;;;10.18;100.00;98841.06;4942841;29;20110;-81
2021/11/01 05:05:47;;;;;;;4.40;1.45;;;9.30;99.90;;;10.21;100.00;98847.88;4959171;29;20086;-85
2021/11/01 05:08:16;;;;;;;9.38;1.50;;;9.30;99.90;;;10.19;100.00;98851.03;4929708;28;20044;-83
2021/11/01 05:10:46;;;;;;;9.90;1.60;;;9.30;99.90;;;10.19;100.00;98856.63;4978483;28;20031;-83
2021/11/01 05:13:21;;;;;;;8.30;1.88;;;9.30;99.90;;;10.24;100.00;98866.59;4978830;28;20034;-84
2021/11/01 05:15:56;;;;;;;9.43;1.58;;;9.40;99.90;;;10.30;100.00;98851.84;4979559;28;20029;-83
2021/11/01 05:18:29;;;;;;;7.80;1.40;;;9.40;99.90;;;10.33;100.00;98859.41;4961793;28;20050;-84
2021/11/01 05:23:48;;;;;;;4.55;1.33;;;9.40;99.90;;;10.29;100.00;98860.59;4979833;28;20065;-84
2021/11/01 05:26:21;;;;;;;8.02;1.20;;;9.50;99.90;;;10.34;100.00;98863.78;4978362;28;20061;-85
2021/11/01 05:28:54;;;;;;;10.45;2.28;;;9.50;99.90;;;10.38;100.00;98852.63;4987609;28;20023;-80
2021/11/01 05:31:25;;;;;;;9.15;1.67;;;9.50;99.90;;;10.31;100.00;98849.81;4993323;28;20102;-84
2021/11/01 05:34:12;;;;;;;6.40;1.48;;;9.40;99.90;;;10.24;100.00;98856.19;4990327;28;20034;-81
2021/11/01 05:36:38;;;;;;;7.63;1.60;;;9.40;99.90;;;10.28;100.00;98857.00;4959882;28;20049;-82
2021/11/01 05:39:06;;;;;;;7.75;1.40;;;9.50;99.90;;;10.24;100.00;98847.84;4975826;28;20037;-81
2021/11/01 05:41:32;;;;;;;11.07;2.55;;;9.40;99.90;;;10.22;100.00;98855.00;4977880;28;20104;-83
2021/11/01 05:43:58;;;;;;;7.22;1.67;;;9.40;99.90;;;10.16;100.00;98863.00;4961083;28;20027;-81
2021/11/01 05:46:32;;;;;;;11.15;2.00;;;9.40;99.90;;;10.18;100.00;98854.25;4978494;28;20540;-82
2021/11/01 05:48:58;;;;;;;7.82;1.75;;;9.40;99.90;;;10.23;100.00;98867.78;4978475;28;20031;-82
2021/11/01 05:51:25;;;;;;;7.63;1.63;;;9.40;99.90;;;10.24;100.00;98863.81;4978226;28;20105;-82
2021/11/01 05:53:55;;;;;;;10.63;2.38;;;9.40;99.90;;;10.27;100.00;98860.22;4978344;28;20030;-81
2021/11/01 05:59:03;;;;;;;8.35;1.60;;;9.40;99.90;;;10.30;100.00;98870.56;4978452;28;20502;-83
2021/11/01 06:04:31;;;;;;;5.32;1.63;;;9.40;99.90;;;10.32;100.00;98874.56;4977452;28;20081;-81
2021/11/01 06:07:06;;;;;;;6.30;1.10;;;9.50;99.90;;;10.35;100.00;98864.56;4977753;28;20043;-82
2021/11/01 06:09:48;;;;;;;;;;;9.50;99.90;;;10.32;100.00;98860.59;4947787;29;20071;-80
2021/11/01 06:14:59;;;;;;;8.70;1.58;;;9.50;99.90;;;10.34;100.00;98860.97;4958658;29;20050;-80
2021/11/01 06:17:25;;;;;;;10.02;1.40;;;9.50;99.90;;;10.35;100.00;98859.00;4958174;29;20027;-83
2021/11/01 06:19:51;;;;;;;7.47;1.52;;;9.50;99.90;;;10.38;100.00;98856.19;4941032;29;20038;-80
2021/11/01 06:22:17;;;;;;;4.03;1.50;;;9.50;99.90;;;10.39;100.00;98852.22;4941679;29;20475;-81
2021/11/01 06:27:13;;;;;;;10.95;1.52;;;9.60;99.90;;;10.42;100.00;98856.19;4959879;28;20030;-81
2021/11/01 06:45:45;;;;;;;6.32;1.00;;;9.60;99.90;;;10.41;100.00;98902.03;4960286;29;20078;-83
2021/11/01 06:51:12;;;;;;;12.40;1.70;;;9.60;99.90;;;10.43;99.45;98913.63;4959500;29;20529;-83
2021/11/01 06:53:56;;;;;;;4.05;1.88;;;9.60;99.90;;;10.36;99.82;98910.81;4959088;28;20042;-82
2021/11/01 07:15:37;;;;;;;5.93;1.58;;;9.60;99.90;;;10.55;98.66;98946.72;4979454;28;20046;-83
2021/11/01 07:18:14;;;;;;;6.13;1.30;;;9.70;99.90;;;10.94;96.65;98941.09;4978742;28;20027;-82
2021/11/01 07:20:53;;;;;;;4.50;1.92;;;9.90;99.90;;;11.22;94.39;98946.63;4978247;28;20027;-83
2021/11/01 08:20:50;;;;;;;5.93;1.50;;;12.10;99.90;;;13.29;80.92;99004.53;4964826;29;20039;-85
2021/11/01 08:36:50;;;;;;;8.05;1.83;;;12.40;99.90;;;13.53;77.87;98992.25;4964469;29;20177;-83
2021/11/01 08:42:25;;;;;;;9.02;1.38;;;12.80;99.90;;;13.74;76.45;99000.41;4963122;29;20050;-81
2021/11/01 09:04:02;;;;;;;7.03;1.27;;;13.20;99.90;;;13.63;76.92;99005.34;4962842;29;20030;-86
2021/11/01 09:19:55;;;;;;;6.95;1.67;;;12.30;99.90;;;12.96;78.56;99000.41;4967964;28;20061;-86
2021/11/01 09:27:44;;;;;;;5.70;1.55;;;12.00;99.90;;;13.10;78.62;99002.28;4966213;28;20035;-84
2021/11/01 09:41:07;;;;;;;8.95;1.98;;;12.30;99.90;;;13.54;76.83;98990.25;4964694;28;20049;-82
2021/11/01 09:43:35;;;;;;;5.28;1.20;;;12.40;99.90;;;13.59;76.75;98998.19;4948346;28;20408;-83
2021/11/01 09:46:10;;;;;;;7.90;1.30;;;12.50;99.90;;;13.98;76.21;98994.91;4980606;28;20042;-84
2021/11/01 09:48:40;;;;;;;8.90;1.55;;;12.90;99.90;;;14.35;74.52;98994.84;4946540;28;20038;-84
2021/11/01 09:51:08;;;;;;;9.38;1.63;;;13.30;99.90;;;14.84;72.64;99001.69;4980391;28;20150;-85
2021/11/01 09:53:44;;;;;;;6.65;1.30;;;13.60;99.90;;;15.12;70.33;98989.19;4963087;28;20046;-85
2021/11/01 09:56:22;;;;;;;8.40;1.55;;;13.90;99.90;;;14.88;71.65;98996.81;4965859;28;20035;-83
2021/11/01 10:01:35;;;;;;;6.32;1.33;;;13.90;99.90;;;14.90;70.09;98996.41;4965313;28;20170;-82
2021/11/01 10:04:02;;;;;;;4.90;1.17;;;13.90;99.90;;;15.30;69.11;98996.06;4963274;28;20042;-85
2021/11/01 10:06:31;;;;;;;7.03;1.42;;;14.20;99.90;;;15.46;70.02;98997.38;4979638;28;20027;-82
2021/11/01 10:09:02;;;;;;;7.97;1.55;;;14.40;99.90;;;15.39;67.55;99003.13;4971341;28;20054;-85
2021/11/01 10:11:37;;;;;;;4.68;1.35;;;14.40;99.90;;;15.13;67.82;99000.00;4957337;29;20094;-84
2021/11/01 10:14:13;;;;;;;9.68;1.88;;;14.20;99.90;;;14.94;68.10;98995.09;4975090;29;20051;-83
2021/11/01 10:19:42;;;;;;;4.45;1.15;;;13.60;99.90;;;14.29;71.48;98998.50;4945520;29;20466;-85
2021/11/01 10:22:24;;;;;;;5.47;1.60;;;13.30;99.90;;;14.70;68.62;98991.47;4942094;29;20030;-85
2021/11/01 10:24:58;;;;;;;9.00;2.05;;;13.50;99.90;;;14.74;68.80;98985.78;4927380;29;20082;-83
2021/11/01 10:27:39;;;;;;;4.90;1.00;;;13.70;99.90;;;14.68;67.61;98993.13;4926274;29;20032;-83
2021/11/01 10:30:14;;;;;;;12.27;1.25;;;13.60;99.90;;;14.24;70.36;98996.97;4926824;29;20057;-82
2021/11/01 10:32:44;;;;;;;7.07;1.40;;;13.40;99.90;;;14.92;68.87;98989.13;4959036;28;20541;-84
2021/11/01 10:35:28;;;;;;;7.55;1.15;;;13.80;99.90;;;15.38;66.60;98979.84;4959800;29;20403;-84
2021/11/01 10:38:25;;;;;;;6.05;1.60;;;14.10;99.90;;;15.39;66.32;98978.63;4942054;29;20398;-86
2021/11/01 10:46:52;;;;;;;6.25;1.40;;;14.60;99.90;;;15.92;63.95;98974.78;4942835;29;20031;-83
2021/11/01 11:11:59;;;;;;;6.20;1.33;;;14.80;99.90;;;15.91;62.63;98961.94;4978752;28;20132;-85
2021/11/01 11:17:11;;;;;;;6.00;1.42;;;15.10;99.90;;;15.93;63.16;98959.47;4964846;28;20046;-85
2021/11/01 11:48:04;;;;;;;11.40;1.33;;;13.50;99.90;;;14.91;63.81;98945.34;4982967;28;20210;-82
2021/11/01 11:50:33;;;;;;;4.65;1.20;;;13.80;99.90;;;14.86;63.84;98948.66;4982378;28;20054;-83
2021/11/01 11:53:16;;;;;;;2.05;1.00;;;13.80;99.90;;;15.41;62.13;98944.44;4964381;28;20517;-81
2021/11/01 11:55:57;;;;;;;3.95;0.90;;;14.20;99.90;;;16.23;61.17;98935.88;4982112;28;20522;-80
2021/11/01 11:58:38;;;;;;;2.90;0.80;;;14.80;99.90;;;16.61;57.67;98939.81;4979413;28;20038;-83
2021/11/01 12:01:41;;;;;;;8.65;0.88;;;15.30;99.90;;;16.16;55.55;98933.22;4964358;28;20043;-83
2021/11/01 12:04:34;;;;;;;4.07;0.85;;;15.10;99.90;;;15.62;57.79;98941.22;4981233;28;20442;-83
2021/11/01 12:07:04;;;;;;;3.30;1.00;;;14.60;99.90;;;15.48;57.92;98939.50;4980922;28;20113;-86
2021/11/01 12:09:45;;;;;;;4.05;1.20;;;14.50;99.90;;;14.97;59.84;98937.22;4966702;28;20503;-80
2021/11/01 12:17:23;;;;;;;5.22;1.35;;;14.30;99.90;;;15.47;57.97;98939.91;4945273;29;20035;-84
2021/11/01 12:19:50;;;;;;;4.75;0.95;;;14.20;99.90;;;14.88;57.18;98937.78;4928854;29;20046;-82
2021/11/01 12:22:32;;;;;;;3.47;0.82;;;14.00;99.90;;;14.97;57.93;98931.59;4960948;29;20087;-80
2021/11/01 12:25:07;;;;;;;5.18;1.02;;;13.90;99.90;;;14.92;58.49;98930.09;4951383;29;20046;-81
2021/11/01 12:27:40;;;;;;;;;;;13.80;99.90;;;14.87;59.10;98933.38;4947375;29;20491;-82
2021/11/01 12:30:12;;;;;;;5.63;0.60;;;13.70;99.90;;;14.95;58.09;98934.06;4943748;29;20378;-82
2021/11/01 12:32:40;;;;;;;3.80;0.80;;;13.80;99.90;;;15.39;56.86;98919.56;4961000;28;20223;-83
2021/11/01 12:35:18;;;;;;;3.92;0.90;;;14.10;99.90;;;15.58;55.88;98929.25;4960936;28;20027;-85
2021/11/01 12:38:17;;;;;;;3.22;0.80;;;14.40;99.90;;;16.00;56.07;98924.72;4928664;29;20450;-86
2021/11/01 12:40:59;;;;;;;5.57;1.15;;;14.70;99.90;;;16.11;54.17;98928.13;4930407;29;20042;-84
2021/11/01 12:57:32;;;;;;;4.22;0.80;;;15.40;99.20;;;16.51;54.71;98928.75;4946156;29;20042;-83
2021/11/01 13:00:00;;;;;;;2.95;0.82;;;15.40;98.60;;;16.48;54.12;98924.81;4912929;29;20050;-83
2021/11/01 13:02:36;;;;;;;3.35;1.10;;;15.30;97.20;;;16.55;55.05;98921.84;4912036;29;20372;-81
2021/11/01 13:05:22;;;;;;;4.05;0.63;;;15.30;99.50;;;16.63;54.71;98911.97;4942486;29;20026;-82
2021/11/01 13:19:16;;;;;;;3.80;0.88;;;14.80;98.60;;;15.90;56.53;98904.03;4965655;28;20049;-82
2021/11/01 13:21:54;;;;;;;3.28;0.88;;;14.70;99.90;;;15.80;55.88;98899.41;4964460;28;20035;-84
2021/11/01 13:25:28;;;;;;;3.55;0.73;;;14.70;99.90;;;15.87;54.13;98896.47;4962202;28;20098;-82
2021/11/01 13:27:49;;;;;;;4.25;0.70;;;14.70;97.00;;;15.93;54.34;98897.53;4963241;28;20043;-82
2021/11/01 13:38:57;;;;;;;5.28;0.85;;;14.70;96.10;;;15.80;54.77;98888.16;4960274;28;20326;-82
2021/11/01 13:41:30;;;;;;;5.18;0.75;;;14.60;97.50;;;15.64;53.71;98888.91;4945055;28;20410;-81
2021/11/01 13:44:19;;;;;;;3.45;0.52;;;14.60;95.60;;;15.69;55.04;98896.06;4977208;28;20452;-82
2021/11/01 13:47:01;;;;;;;3.83;0.73;;;14.60;97.20;;;15.85;54.56;98895.31;4959419;28;20035;-80
2021/11/01 13:49:37;;;;;;;5.32;1.20;;;14.60;97.70;;;15.76;54.42;98904.34;4961774;28;20383;-83
2021/11/01 13:52:41;;;;;;;3.42;0.80;;;14.60;96.70;;;15.79;54.68;98911.94;4960030;28;20513;-80
2021/11/01 13:58:18;;;;;;;3.58;0.70;;;14.50;95.60;;;15.64;54.53;98899.38;4976906;28;20038;-83
2021/11/01 14:01:07;;;;;;;6.00;1.08;;;14.50;97.50;;;15.55;55.08;98899.97;4976135;28;20026;-81
2021/11/01 14:14:55;;;;;;;9.52;1.27;;;14.20;99.90;;;15.16;55.82;98908.34;4938743;29;20555;-80
2021/11/01 14:17:34;;;;;;;5.93;0.60;;;14.10;99.60;;;15.16;56.37;98922.41;4936899;29;20035;-80
2021/11/01 14:30:57;;;;;;;5.10;1.00;;;13.90;99.90;;;15.04;56.89;98906.97;4936793;29;20118;-81
2021/11/01 14:56:08;;;;;;;3.22;1.20;;;13.30;99.90;;;14.49;59.70;98906.72;4980158;28;20038;-80
2021/11/01 15:19:31;;;;;;;2.63;0.90;;;12.70;99.90;;;13.74;61.72;98918.28;4981981;28;20041;-80
2021/11/01 15:27:34;;;;;;;3.53;0.82;;;12.50;99.90;;;13.54;62.46;98926.53;4979656;28;20038;-79
2021/11/01 16:18:47;;;;;;;3.50;1.02;;;11.20;99.90;;;12.22;68.75;98938.56;4959854;29;20036;-78
2021/11/01 16:21:13;;;;;;;3.95;0.95;;;11.10;99.90;;;12.09;68.88;98936.25;4957993;28;20031;-79
2021/11/01 16:23:42;;;;;;;5.45;1.35;;;11.00;99.90;;;11.99;69.13;98939.91;4941641;29;20037;-80
2021/11/01 16:26:25;;;;;;;3.55;1.23;;;10.90;99.90;;;11.92;69.82;98942.75;4940474;29;20033;-78
2021/11/01 16:34:07;;;;;;;7.63;1.85;;;10.60;99.90;;;11.70;70.41;98938.47;4957841;29;20554;-77
2021/11/01 16:39:14;;;;;;;3.92;1.20;;;10.50;99.90;;;11.52;71.28;98940.53;4958998;29;20471;-80
2021/11/01 16:41:48;;;;;;;4.22;1.00;;;10.40;99.90;;;11.50;71.12;98942.91;4943412;29;20039;-82
2021/11/01 16:44:22;;;;;;;4.47;1.20;;;10.40;99.90;;;11.45;71.84;98935.75;4925470;29;20610;-79
2021/11/01 16:46:51;;;;;;;2.30;1.00;;;10.40;99.90;;;11.39;71.46;98940.19;4941768;29;20031;-79
2021/11/01 16:49:20;;;;;;;4.80;1.05;;;10.30;99.90;;;11.28;72.71;98947.78;4958235;28;20514;-79
2021/11/01 16:51:51;;;;;;;5.57;1.15;;;10.20;99.90;;;11.25;72.52;98947.78;4941498;29;20043;-77
2021/11/01 16:54:29;;;;;;;6.47;1.02;;;10.20;99.90;;;11.31;71.58;98948.97;4957588;29;20082;-77
2021/11/01 16:57:11;;;;;;;7.13;1.20;;;10.20;99.90;;;11.39;71.19;98944.97;4940707;29;20045;-80
2021/11/01 16:59:57;;;;;;;9.82;1.50;;;10.30;99.90;;;11.45;71.36;98932.16;4941954;29;20034;-77
2021/11/01 17:21:34;;;;;;;5.87;1.43;;;10.20;99.90;;;11.23;72.34;98953.81;4976340;28;20042;-79
2021/11/01 18:39:45;;;;;;;8.52;2.10;;;9.70;99.90;;;10.61;76.48;98980.59;4955826;29;20095;-80
2021/11/01 18:53:33;;;;;;;5.60;2.17;;;9.40;99.90;;;10.26;78.30;98986.94;4958792;29;20050;-79
2021/11/01 18:56:05;;;;;;;7.05;2.20;;;9.30;99.90;;;10.11;79.19;98974.16;4939299;29;20032;-80
2021/11/01 18:58:39;;;;;;;6.88;1.90;;;9.20;99.90;;;10.18;78.95;98980.53;4937107;29;20027;-78
2021/11/01 19:01:11;;;;;;;8.35;2.00;;;9.20;99.90;;;10.21;78.75;98976.19;4936805;29;20039;-80
2021/11/01 19:03:51;;;;;;;5.00;2.05;;;9.20;99.90;;;10.15;79.17;98975.75;4922832;29;20042;-78
2021/11/01 20:04:26;;;;;;;4.88;1.27;;;9.20;99.90;;;10.06;81.01;98955.78;4962118;28;20523;-80
2021/11/01 20:10:12;;;;;;;7.25;2.38;;;9.00;99.90;;;9.93;81.91;98954.56;4947181;29;20038;-80
2021/11/01 20:15:33;;;;;;;5.07;1.23;;;8.90;99.90;;;9.86;82.50;98952.56;4941468;29;20099;-81
2021/11/01 21:26:23;;;;;;;6.57;1.50;;;8.80;99.90;;;9.64;86.72;98944.50;4981482;28;20026;-82
2021/11/01 21:28:51;;;;;;;6.80;1.23;;;8.80;99.90;;;9.59;87.23;98944.91;4972496;28;20027;-82
2021/11/01 21:31:21;;;;;;;8.07;1.73;;;8.70;99.90;;;9.63;87.28;98943.75;4951801;28;20080;-82
2021/11/01 21:33:55;;;;;;;7.38;1.52;;;8.70;99.90;;;9.63;87.48;98940.16;4945268;28;20038;-80
2021/11/01 21:36:24;;;;;;;3.85;1.30;;;8.70;99.90;;;9.58;87.79;98941.31;4959864;28;20057;-82
2021/11/01 21:38:57;;;;;;;5.35;1.70;;;8.70;99.90;;;9.57;88.18;98936.16;4964664;28;20035;-81
2021/11/01 21:41:28;;;;;;;5.60;1.50;;;8.60;99.90;;;9.56;88.16;98935.34;4968829;28;20031;-84
2021/11/01 21:43:55;;;;;;;7.03;2.00;;;8.60;99.90;;;9.52;88.32;98940.09;4964676;28;20037;-83